Les articles d'ExpertMaritime.pro..


Votre expert maritime indépendant Xavier Braive est disponible sur la zone de Meschers-sur-Gironde - Port de Meschers - 17132

(Charente-Maritime - Poitou-Charentes)


Voir plan
Situation :

Le Port de Meschers, situé sur la rive droite de la Gironde près de son embouchure, est abrité par tous temps.

Il comprend :

- Un avant-chenal de 250 m de long, large de 8 m qui fait un angle de 8° W avec le Nord vrai, creusé à la cote + 0,50 m ; le vieux havre d’échouage ou « chenal » équipé de quai, cales en 1861.

- Un bassin d’échouage créé 1985 de 121 places sur pontons flottants, creuse à la cote + 1 m.

- Un bassin à flot mis en service en 1990, de 121 places à l’origine, 116 aujourd’hui (on y a placé des bateaux plus grands que prévu), en arrière d’une porte-écluse, T.E. 2,50 m ; le seuil de l’écluse est à la cote + 2 m ; les portes ouvrent quand la mer atteint le niveau + 3,50 m, avec 1,50 m d’eau sur le seuil (les cotes se réfèrent au niveau 0 des cartes marines).
Lat. 45° 33?, 3 N – Long. 00° 56?, 6 W ; carte SHOM 7029.
Distances : LE VERDON : 3,5 M. – ROYAN : 5 M. – PAUILLAC : 23 M. – BORDEAUX : 48 M.

- Une zone de mouillage, ouverte d’Avril à Septembre, de 22 corps morts, sur les vases à l’est du chenal d’accès.

Pratique :

Ville de Meschers : Location des anneaux.
Capitainerie, Tél.: 05.46.02.56.89 – VHF canal 9 –
n° de Fax 05 46 02 34 77 - GSM 06 15 11 23 10
Monsieur KERDUDOU est le capitaine assermenté du port.

SAUVETAGE :
CROSS ETEL, Tél.: O2 .97.553.535.
De juin à septembre Poste de Secours – Plage des Nonnes,
Tél. : 05.46.02.72.92, situé à 1 mille au nord du Port.
Météo affichée à la Capitainerie.
Météo locale sur la zone Port de Meschers
Heure (UTC) Dir.Vent Vit.Vent (nds) Force (Bft) T°min T°max P (mb) Hum.Rel.
18/06/2024 - 06:00:00 au 18/06/2024 - 09:00:00 256° (WSW) 7 3 20°C 22°C 1011 88 %
18/06/2024 - 09:00:00 au 18/06/2024 - 12:00:00 271° (W) 7 3 21°C 21°C 1011 84 %
18/06/2024 - 12:00:00 au 18/06/2024 - 15:00:00 302° (WNW) 11 4 19°C 20°C 1012 85 %
18/06/2024 - 15:00:00 au 18/06/2024 - 18:00:00 012° (NNE) 7 3 17°C 17°C 1012 94 %
18/06/2024 - 18:00:00 au 18/06/2024 - 21:00:00 271° (W) 2 1 17°C 17°C 1013 93 %
18/06/2024 - 21:00:00 au 19/06/2024 - 00:00:00 234° (SW) 4 2 17°C 17°C 1014 94 %
19/06/2024 - 00:00:00 au 19/06/2024 - 03:00:00 209° (SSW) 4 2 16°C 16°C 1013 95 %
19/06/2024 - 03:00:00 au 19/06/2024 - 06:00:00 220° (SW) 3 1 17°C 17°C 1014 92 %
19/06/2024 - 06:00:00 au 19/06/2024 - 09:00:00 261° (W) 5 2 19°C 19°C 1015 80 %
19/06/2024 - 09:00:00 au 19/06/2024 - 12:00:00 265° (W) 6 2 20°C 20°C 1016 72 %
19/06/2024 - 12:00:00 au 19/06/2024 - 15:00:00 267° (W) 7 3 20°C 20°C 1016 72 %
19/06/2024 - 15:00:00 au 19/06/2024 - 18:00:00 289° (WNW) 6 2 19°C 19°C 1016 79 %
19/06/2024 - 18:00:00 au 19/06/2024 - 21:00:00 323° (NW) 5 2 17°C 17°C 1017 90 %
19/06/2024 - 21:00:00 au 20/06/2024 - 00:00:00 001° (N) 7 3 17°C 17°C 1016 87 %
20/06/2024 - 00:00:00 au 20/06/2024 - 03:00:00 353° (N) 6 2 16°C 16°C 1015 87 %
20/06/2024 - 03:00:00 au 20/06/2024 - 06:00:00 305° (NW) 1 1 16°C 16°C 1015 93 %
20/06/2024 - 06:00:00 au 20/06/2024 - 09:00:00 279° (W) 5 2 17°C 17°C 1015 93 %
20/06/2024 - 09:00:00 au 20/06/2024 - 12:00:00 310° (NW) 9 3 16°C 16°C 1015 93 %
20/06/2024 - 12:00:00 au 20/06/2024 - 15:00:00 308° (NW) 9 3 17°C 17°C 1014 93 %
20/06/2024 - 15:00:00 au 20/06/2024 - 18:00:00 286° (WNW) 11 4 17°C 17°C 1013 90 %
20/06/2024 - 18:00:00 au 20/06/2024 - 21:00:00 272° (W) 12 4 17°C 17°C 1014 90 %
20/06/2024 - 21:00:00 au 21/06/2024 - 00:00:00 250° (WSW) 15 4 16°C 16°C 1014 93 %
21/06/2024 - 00:00:00 au 21/06/2024 - 03:00:00 238° (WSW) 12 4 16°C 16°C 1014 94 %
21/06/2024 - 03:00:00 au 21/06/2024 - 06:00:00 269° (W) 13 4 16°C 16°C 1015 92 %
21/06/2024 - 06:00:00 au 21/06/2024 - 09:00:00 252° (WSW) 12 4 17°C 17°C 1017 91 %
21/06/2024 - 09:00:00 au 21/06/2024 - 12:00:00 267° (W) 9 3 18°C 18°C 1018 86 %
21/06/2024 - 12:00:00 au 21/06/2024 - 15:00:00 279° (W) 12 4 19°C 19°C 1019 78 %
21/06/2024 - 15:00:00 au 21/06/2024 - 18:00:00 272° (W) 10 3 18°C 18°C 1019 77 %
21/06/2024 - 18:00:00 au 21/06/2024 - 21:00:00 249° (WSW) 9 3 16°C 16°C 1020 84 %
21/06/2024 - 21:00:00 au 22/06/2024 - 00:00:00 238° (WSW) 12 4 16°C 16°C 1020 85 %
22/06/2024 - 00:00:00 au 22/06/2024 - 03:00:00 236° (SW) 13 4 17°C 17°C 1018 78 %
22/06/2024 - 03:00:00 au 22/06/2024 - 06:00:00 235° (SW) 15 4 16°C 16°C 1017 92 %
22/06/2024 - 06:00:00 au 22/06/2024 - 09:00:00 250° (WSW) 14 4 18°C 18°C 1018 90 %
22/06/2024 - 09:00:00 au 22/06/2024 - 12:00:00 258° (WSW) 12 4 17°C 17°C 1018 90 %
22/06/2024 - 12:00:00 au 22/06/2024 - 15:00:00 276° (W) 10 3 16°C 16°C 1017 93 %
22/06/2024 - 15:00:00 au 22/06/2024 - 18:00:00 262° (W) 12 4 17°C 17°C 1017 89 %
22/06/2024 - 18:00:00 au 22/06/2024 - 21:00:00 278° (W) 10 3 17°C 17°C 1018 91 %
22/06/2024 - 21:00:00 au 23/06/2024 - 00:00:00 305° (NW) 7 3 17°C 17°C 1018 92 %
23/06/2024 - 00:00:00 au 23/06/2024 - 03:00:00 333° (NNW) 6 2 16°C 16°C 1018 91 %
23/06/2024 - 03:00:00 au 23/06/2024 - 06:00:00 006° (N) 4 2 16°C 16°C 1020 90 %
openweathermap
Ces informations sont partiellement extraites de Wikipedia, et des sites pertinents pour cette zone. Compilation d'informations de Xavier Braive.
Xavier Braive, Expert Maritime Plaisance se déplace sur Port de Meschers, Meschers-sur-Gironde, 17132, Charente-Maritime

Welcome to Cross-Channel yachtmen !

we can deliver survey reports in english, in case of dammage or prior to buy / sell a boat in France (pre-purchase survey), and more specifically on the Atlantic coast.

Uw onafhankelijk jachtexpert

verkrijkbaar op de Atlantische kust, bij aankoop of reparatie van jachten (metaal, polyester of composiet). Rapporten in Nederlands

BRAIVE, Xavier
Xavier Braive
Expert Maritime
Nouvelle Aquitaine
France
07 64 82 25 44